Angora, Minnesota
Current Conditions -  °F | °C
As of 9:34 AM on Friday 24 Oct 2014 (Local Time) from KCQM Reporting Station
Clear Clear  
Wind Chill: 54°   Ceiling: Unl
Heat Index: 54°   Visibility: 10mi
Dew Point: 45°   Wind: 8mph
Humidity: 72%   Direction: 200°SSW
Pressure: 29.8"   Gusts: NA
Location:  47.77°N, 92.63°W
Report Text: KCQM 241434Z AUTO 20007KT 10SM CLR 12/07 A2980 RMK AO2
Loading
Personal Weather Stations






























Interactive Weather Map
Tropical Storm Tracking
New forecast layout! Learn more

10-Day Weather Forecast

Advertisements
Track Severe Weather on mobile